sensor_id;sensor_type;location;lat;lon;timestamp;P1;durP1;ratioP1;P2;durP2;ratioP2
75005;SDS011;63553;51.814;4.600;2024-02-28T00:00:22;0.80;;;0.80;;
75005;SDS011;63553;51.814;4.600;2024-02-28T00:02:47;1.00;;;1.00;;
75005;SDS011;63553;51.814;4.600;2024-02-28T00:05:12;0.93;;;0.93;;
75005;SDS011;63553;51.814;4.600;2024-02-28T00:07:37;0.80;;;0.80;;
75005;SDS011;63553;51.814;4.600;2024-02-28T00:10:03;0.67;;;0.67;;
75005;SDS011;63553;51.814;4.600;2024-02-28T00:12:28;0.70;;;0.70;;
75005;SDS011;63553;51.814;4.600;2024-02-28T00:14:54;0.80;;;0.80;;
75005;SDS011;63553;51.814;4.600;2024-02-28T00:17:19;1.50;;;1.40;;
75005;SDS011;63553;51.814;4.600;2024-02-28T00:19:44;0.93;;;0.88;;
75005;SDS011;63553;51.814;4.600;2024-02-28T00:22:10;1.10;;;1.10;;
75005;SDS011;63553;51.814;4.600;2024-02-28T00:24:35;0.93;;;0.93;;
75005;SDS011;63553;51.814;4.600;2024-02-28T00:27:00;1.00;;;1.00;;
75005;SDS011;63553;51.814;4.600;2024-02-28T00:29:26;0.80;;;0.80;;
75005;SDS011;63553;51.814;4.600;2024-02-28T00:31:52;0.85;;;0.85;;
75005;SDS011;63553;51.814;4.600;2024-02-28T00:34:17;0.75;;;0.75;;
75005;SDS011;63553;51.814;4.600;2024-02-28T00:36:43;0.80;;;0.80;;
75005;SDS011;63553;51.814;4.600;2024-02-28T00:39:08;1.73;;;0.90;;
75005;SDS011;63553;51.814;4.600;2024-02-28T00:41:35;0.85;;;0.85;;
75005;SDS011;63553;51.814;4.600;2024-02-28T00:44:01;0.83;;;0.83;;
75005;SDS011;63553;51.814;4.600;2024-02-28T00:46:27;0.77;;;0.77;;
75005;SDS011;63553;51.814;4.600;2024-02-28T00:48:53;0.70;;;0.70;;
75005;SDS011;63553;51.814;4.600;2024-02-28T00:51:18;0.80;;;0.80;;
75005;SDS011;63553;51.814;4.600;2024-02-28T00:53:43;0.70;;;0.70;;
75005;SDS011;63553;51.814;4.600;2024-02-28T00:56:08;0.90;;;0.90;;
75005;SDS011;63553;51.814;4.600;2024-02-28T00:58:34;0.80;;;0.80;;
75005;SDS011;63553;51.814;4.600;2024-02-28T01:00:59;0.70;;;0.70;;
75005;SDS011;63553;51.814;4.600;2024-02-28T01:03:24;2.30;;;1.13;;
75005;SDS011;63553;51.814;4.600;2024-02-28T01:05:50;3.05;;;0.70;;
75005;SDS011;63553;51.814;4.600;2024-02-28T01:08:16;1.02;;;0.90;;
75005;SDS011;63553;51.814;4.600;2024-02-28T01:10:44;1.05;;;1.05;;
75005;SDS011;63553;51.814;4.600;2024-02-28T01:13:10;1.02;;;1.00;;
75005;SDS011;63553;51.814;4.600;2024-02-28T01:15:36;0.88;;;0.88;;
75005;SDS011;63553;51.814;4.600;2024-02-28T01:18:04;0.80;;;0.80;;
75005;SDS011;63553;51.814;4.600;2024-02-28T01:20:29;0.90;;;0.90;;
75005;SDS011;63553;51.814;4.600;2024-02-28T01:22:54;0.70;;;0.70;;
75005;SDS011;63553;51.814;4.600;2024-02-28T01:25:20;0.80;;;0.80;;
75005;SDS011;63553;51.814;4.600;2024-02-28T01:27:45;0.80;;;0.80;;
75005;SDS011;63553;51.814;4.600;2024-02-28T01:30:11;0.80;;;0.80;;
75005;SDS011;63553;51.814;4.600;2024-02-28T01:32:36;0.80;;;0.80;;
75005;SDS011;63553;51.814;4.600;2024-02-28T01:35:02;0.77;;;0.77;;
75005;SDS011;63553;51.814;4.600;2024-02-28T01:37:28;0.70;;;0.70;;
75005;SDS011;63553;51.814;4.600;2024-02-28T01:39:53;0.80;;;0.80;;
75005;SDS011;63553;51.814;4.600;2024-02-28T01:42:18;0.80;;;0.80;;
75005;SDS011;63553;51.814;4.600;2024-02-28T01:44:45;0.90;;;0.90;;
75005;SDS011;63553;51.814;4.600;2024-02-28T01:47:13;0.90;;;0.90;;
75005;SDS011;63553;51.814;4.600;2024-02-28T01:49:40;0.80;;;0.80;;
75005;SDS011;63553;51.814;4.600;2024-02-28T01:52:07;1.10;;;0.73;;
75005;SDS011;63553;51.814;4.600;2024-02-28T01:54:32;1.05;;;1.05;;
75005;SDS011;63553;51.814;4.600;2024-02-28T01:57:00;0.68;;;0.68;;
75005;SDS011;63553;51.814;4.600;2024-02-28T01:59:25;0.98;;;0.98;;
75005;SDS011;63553;51.814;4.600;2024-02-28T02:01:51;0.80;;;0.80;;
75005;SDS011;63553;51.814;4.600;2024-02-28T02:04:16;1.13;;;1.13;;
75005;SDS011;63553;51.814;4.600;2024-02-28T02:06:42;0.90;;;0.90;;
75005;SDS011;63553;51.814;4.600;2024-02-28T02:09:10;1.00;;;1.00;;
75005;SDS011;63553;51.814;4.600;2024-02-28T02:11:35;0.70;;;0.70;;
75005;SDS011;63553;51.814;4.600;2024-02-28T02:14:01;0.80;;;0.80;;
75005;SDS011;63553;51.814;4.600;2024-02-28T02:16:26;0.97;;;0.80;;
75005;SDS011;63553;51.814;4.600;2024-02-28T02:18:52;1.00;;;0.90;;
75005;SDS011;63553;51.814;4.600;2024-02-28T02:21:17;0.90;;;0.90;;
75005;SDS011;63553;51.814;4.600;2024-02-28T02:23:45;1.40;;;1.30;;
75005;SDS011;63553;51.814;4.600;2024-02-28T02:26:10;0.63;;;0.63;;
75005;SDS011;63553;51.814;4.600;2024-02-28T02:28:35;1.20;;;1.10;;
75005;SDS011;63553;51.814;4.600;2024-02-28T02:31:01;0.80;;;0.80;;
75005;SDS011;63553;51.814;4.600;2024-02-28T02:33:26;0.95;;;0.95;;
75005;SDS011;63553;51.814;4.600;2024-02-28T02:35:52;1.17;;;1.00;;
75005;SDS011;63553;51.814;4.600;2024-02-28T02:38:18;0.77;;;0.77;;
75005;SDS011;63553;51.814;4.600;2024-02-28T02:40:44;0.75;;;0.75;;
75005;SDS011;63553;51.814;4.600;2024-02-28T02:43:13;0.77;;;0.77;;
75005;SDS011;63553;51.814;4.600;2024-02-28T02:45:39;0.80;;;0.80;;
75005;SDS011;63553;51.814;4.600;2024-02-28T02:48:04;0.90;;;0.90;;
75005;SDS011;63553;51.814;4.600;2024-02-28T02:50:30;1.38;;;0.90;;
75005;SDS011;63553;51.814;4.600;2024-02-28T02:52:55;0.77;;;0.77;;
75005;SDS011;63553;51.814;4.600;2024-02-28T02:55:20;0.80;;;0.80;;
75005;SDS011;63553;51.814;4.600;2024-02-28T02:57:46;0.80;;;0.80;;
75005;SDS011;63553;51.814;4.600;2024-02-28T03:00:11;0.80;;;0.80;;
75005;SDS011;63553;51.814;4.600;2024-02-28T03:02:37;0.70;;;0.70;;
75005;SDS011;63553;51.814;4.600;2024-02-28T03:05:04;0.88;;;0.88;;
75005;SDS011;63553;51.814;4.600;2024-02-28T03:07:30;0.70;;;0.70;;
75005;SDS011;63553;51.814;4.600;2024-02-28T03:09:55;1.00;;;0.90;;
75005;SDS011;63553;51.814;4.600;2024-02-28T03:12:20;0.83;;;0.83;;
75005;SDS011;63553;51.814;4.600;2024-02-28T03:14:47;0.90;;;0.90;;
75005;SDS011;63553;51.814;4.600;2024-02-28T03:17:13;0.80;;;0.80;;
75005;SDS011;63553;51.814;4.600;2024-02-28T03:19:40;0.85;;;0.85;;
75005;SDS011;63553;51.814;4.600;2024-02-28T03:22:05;0.90;;;0.90;;
75005;SDS011;63553;51.814;4.600;2024-02-28T03:24:31;0.82;;;0.82;;
75005;SDS011;63553;51.814;4.600;2024-02-28T03:26:56;0.80;;;0.80;;
75005;SDS011;63553;51.814;4.600;2024-02-28T03:29:21;1.00;;;1.00;;
75005;SDS011;63553;51.814;4.600;2024-02-28T03:31:47;1.00;;;1.00;;
75005;SDS011;63553;51.814;4.600;2024-02-28T03:34:12;1.00;;;1.00;;
75005;SDS011;63553;51.814;4.600;2024-02-28T03:36:37;0.90;;;0.90;;
75005;SDS011;63553;51.814;4.600;2024-02-28T03:39:03;1.05;;;1.05;;
75005;SDS011;63553;51.814;4.600;2024-02-28T03:41:29;1.10;;;1.10;;
75005;SDS011;63553;51.814;4.600;2024-02-28T03:43:54;1.13;;;1.10;;
75005;SDS011;63553;51.814;4.600;2024-02-28T03:46:19;1.35;;;0.70;;
75005;SDS011;63553;51.814;4.600;2024-02-28T03:48:46;1.08;;;1.08;;
75005;SDS011;63553;51.814;4.600;2024-02-28T03:51:11;1.10;;;1.10;;
75005;SDS011;63553;51.814;4.600;2024-02-28T03:53:37;1.08;;;1.08;;
75005;SDS011;63553;51.814;4.600;2024-02-28T03:56:02;1.10;;;1.10;;
75005;SDS011;63553;51.814;4.600;2024-02-28T03:58:28;1.00;;;1.00;;
75005;SDS011;63553;51.814;4.600;2024-02-28T04:00:53;1.00;;;1.00;;
75005;SDS011;63553;51.814;4.600;2024-02-28T04:03:19;1.15;;;1.00;;
75005;SDS011;63553;51.814;4.600;2024-02-28T04:05:44;1.10;;;1.10;;
75005;SDS011;63553;51.814;4.600;2024-02-28T04:08:10;3.80;;;1.23;;
75005;SDS011;63553;51.814;4.600;2024-02-28T04:10:35;0.80;;;0.80;;
75005;SDS011;63553;51.814;4.600;2024-02-28T04:13:01;1.00;;;1.00;;
75005;SDS011;63553;51.814;4.600;2024-02-28T04:15:26;0.90;;;0.90;;
75005;SDS011;63553;51.814;4.600;2024-02-28T04:17:52;1.25;;;1.17;;
75005;SDS011;63553;51.814;4.600;2024-02-28T04:20:17;0.80;;;0.80;;
75005;SDS011;63553;51.814;4.600;2024-02-28T04:22:43;1.00;;;1.00;;
75005;SDS011;63553;51.814;4.600;2024-02-28T04:25:08;1.42;;;0.93;;
75005;SDS011;63553;51.814;4.600;2024-02-28T04:27:35;1.20;;;1.20;;
75005;SDS011;63553;51.814;4.600;2024-02-28T04:30:01;1.08;;;1.00;;
75005;SDS011;63553;51.814;4.600;2024-02-28T04:32:26;1.30;;;1.13;;
75005;SDS011;63553;51.814;4.600;2024-02-28T04:34:52;1.00;;;1.00;;
75005;SDS011;63553;51.814;4.600;2024-02-28T04:37:17;1.50;;;1.20;;
75005;SDS011;63553;51.814;4.600;2024-02-28T04:39:42;1.00;;;1.00;;
75005;SDS011;63553;51.814;4.600;2024-02-28T04:42:08;1.17;;;1.08;;
75005;SDS011;63553;51.814;4.600;2024-02-28T04:44:33;1.70;;;1.30;;
75005;SDS011;63553;51.814;4.600;2024-02-28T04:46:58;1.30;;;1.30;;
75005;SDS011;63553;51.814;4.600;2024-02-28T04:49:24;1.23;;;1.13;;
75005;SDS011;63553;51.814;4.600;2024-02-28T04:51:50;1.40;;;1.30;;
75005;SDS011;63553;51.814;4.600;2024-02-28T04:54:15;1.00;;;1.00;;
75005;SDS011;63553;51.814;4.600;2024-02-28T04:56:41;0.88;;;0.88;;
75005;SDS011;63553;51.814;4.600;2024-02-28T04:59:07;1.08;;;0.90;;
75005;SDS011;63553;51.814;4.600;2024-02-28T05:01:41;1.15;;;1.10;;
75005;SDS011;63553;51.814;4.600;2024-02-28T05:04:08;1.17;;;1.00;;
75005;SDS011;63553;51.814;4.600;2024-02-28T05:06:34;1.40;;;0.90;;
75005;SDS011;63553;51.814;4.600;2024-02-28T05:08:59;0.98;;;0.98;;
75005;SDS011;63553;51.814;4.600;2024-02-28T05:11:25;0.85;;;0.85;;
75005;SDS011;63553;51.814;4.600;2024-02-28T05:13:50;1.50;;;1.15;;
75005;SDS011;63553;51.814;4.600;2024-02-28T05:16:16;0.90;;;0.90;;
75005;SDS011;63553;51.814;4.600;2024-02-28T05:18:42;0.90;;;0.90;;
75005;SDS011;63553;51.814;4.600;2024-02-28T05:21:09;1.35;;;1.10;;
75005;SDS011;63553;51.814;4.600;2024-02-28T05:23:35;1.15;;;0.70;;
75005;SDS011;63553;51.814;4.600;2024-02-28T05:26:00;0.90;;;0.90;;
75005;SDS011;63553;51.814;4.600;2024-02-28T05:28:29;0.90;;;0.90;;
75005;SDS011;63553;51.814;4.600;2024-02-28T05:30:58;0.80;;;0.80;;
75005;SDS011;63553;51.814;4.600;2024-02-28T05:33:25;1.10;;;1.00;;
75005;SDS011;63553;51.814;4.600;2024-02-28T05:35:50;0.70;;;0.70;;
75005;SDS011;63553;51.814;4.600;2024-02-28T05:38:16;1.07;;;0.90;;
75005;SDS011;63553;51.814;4.600;2024-02-28T05:40:41;1.37;;;0.90;;
75005;SDS011;63553;51.814;4.600;2024-02-28T05:43:07;0.93;;;0.90;;
75005;SDS011;63553;51.814;4.600;2024-02-28T05:45:32;1.83;;;0.80;;
75005;SDS011;63553;51.814;4.600;2024-02-28T05:47:57;1.80;;;1.10;;
75005;SDS011;63553;51.814;4.600;2024-02-28T05:50:22;0.90;;;0.90;;
75005;SDS011;63553;51.814;4.600;2024-02-28T05:52:48;0.77;;;0.77;;
75005;SDS011;63553;51.814;4.600;2024-02-28T05:55:13;0.80;;;0.80;;
75005;SDS011;63553;51.814;4.600;2024-02-28T05:57:38;0.90;;;0.90;;
75005;SDS011;63553;51.814;4.600;2024-02-28T06:00:04;1.27;;;0.77;;
75005;SDS011;63553;51.814;4.600;2024-02-28T06:02:35;1.00;;;1.00;;
75005;SDS011;63553;51.814;4.600;2024-02-28T06:05:02;0.90;;;0.90;;
75005;SDS011;63553;51.814;4.600;2024-02-28T06:07:27;0.70;;;0.70;;
75005;SDS011;63553;51.814;4.600;2024-02-28T06:09:52;1.40;;;1.00;;
75005;SDS011;63553;51.814;4.600;2024-02-28T06:12:17;1.00;;;1.00;;
75005;SDS011;63553;51.814;4.600;2024-02-28T06:14:43;1.07;;;0.97;;
75005;SDS011;63553;51.814;4.600;2024-02-28T06:17:08;0.73;;;0.73;;
75005;SDS011;63553;51.814;4.600;2024-02-28T06:19:33;0.70;;;0.70;;
75005;SDS011;63553;51.814;4.600;2024-02-28T06:21:59;0.80;;;0.80;;
75005;SDS011;63553;51.814;4.600;2024-02-28T06:24:24;0.87;;;0.87;;
75005;SDS011;63553;51.814;4.600;2024-02-28T06:26:49;0.77;;;0.77;;
75005;SDS011;63553;51.814;4.600;2024-02-28T06:29:15;0.70;;;0.70;;
75005;SDS011;63553;51.814;4.600;2024-02-28T06:31:40;0.67;;;0.67;;
75005;SDS011;63553;51.814;4.600;2024-02-28T06:34:05;0.93;;;0.93;;
75005;SDS011;63553;51.814;4.600;2024-02-28T06:36:30;0.90;;;0.90;;
75005;SDS011;63553;51.814;4.600;2024-02-28T06:38:56;1.02;;;0.82;;
75005;SDS011;63553;51.814;4.600;2024-02-28T06:41:21;0.88;;;0.88;;
75005;SDS011;63553;51.814;4.600;2024-02-28T06:43:46;0.90;;;0.83;;
75005;SDS011;63553;51.814;4.600;2024-02-28T06:46:12;0.90;;;0.90;;
75005;SDS011;63553;51.814;4.600;2024-02-28T06:48:37;0.82;;;0.82;;
75005;SDS011;63553;51.814;4.600;2024-02-28T06:51:03;0.90;;;0.82;;
75005;SDS011;63553;51.814;4.600;2024-02-28T06:53:28;0.90;;;0.90;;
75005;SDS011;63553;51.814;4.600;2024-02-28T06:55:54;0.70;;;0.70;;
75005;SDS011;63553;51.814;4.600;2024-02-28T06:58:19;0.70;;;0.70;;
75005;SDS011;63553;51.814;4.600;2024-02-28T07:00:45;1.40;;;0.90;;
75005;SDS011;63553;51.814;4.600;2024-02-28T07:03:12;0.90;;;0.90;;
75005;SDS011;63553;51.814;4.600;2024-02-28T07:05:37;0.93;;;0.93;;
75005;SDS011;63553;51.814;4.600;2024-02-28T07:08:02;0.80;;;0.80;;
75005;SDS011;63553;51.814;4.600;2024-02-28T07:10:28;0.93;;;0.93;;
75005;SDS011;63553;51.814;4.600;2024-02-28T07:12:53;1.00;;;1.00;;
75005;SDS011;63553;51.814;4.600;2024-02-28T07:15:19;1.20;;;1.10;;
75005;SDS011;63553;51.814;4.600;2024-02-28T07:17:46;0.90;;;0.90;;
75005;SDS011;63553;51.814;4.600;2024-02-28T07:20:11;0.90;;;0.90;;
75005;SDS011;63553;51.814;4.600;2024-02-28T07:22:37;1.15;;;0.95;;
75005;SDS011;63553;51.814;4.600;2024-02-28T07:25:03;0.90;;;0.90;;
75005;SDS011;63553;51.814;4.600;2024-02-28T07:27:29;1.63;;;1.10;;
75005;SDS011;63553;51.814;4.600;2024-02-28T07:29:55;1.10;;;1.00;;
75005;SDS011;63553;51.814;4.600;2024-02-28T07:32:20;1.10;;;1.10;;
75005;SDS011;63553;51.814;4.600;2024-02-28T07:34:45;1.20;;;1.20;;
75005;SDS011;63553;51.814;4.600;2024-02-28T07:37:11;1.07;;;1.07;;
75005;SDS011;63553;51.814;4.600;2024-02-28T07:39:37;1.55;;;1.27;;
75005;SDS011;63553;51.814;4.600;2024-02-28T07:42:02;1.20;;;1.20;;
75005;SDS011;63553;51.814;4.600;2024-02-28T07:44:28;1.65;;;1.55;;
75005;SDS011;63553;51.814;4.600;2024-02-28T07:46:55;2.85;;;1.85;;
75005;SDS011;63553;51.814;4.600;2024-02-28T07:49:22;1.85;;;1.65;;
75005;SDS011;63553;51.814;4.600;2024-02-28T07:51:47;2.40;;;2.20;;
75005;SDS011;63553;51.814;4.600;2024-02-28T07:54:15;2.00;;;1.90;;
75005;SDS011;63553;51.814;4.600;2024-02-28T07:56:40;1.92;;;1.83;;
75005;SDS011;63553;51.814;4.600;2024-02-28T07:59:06;2.13;;;1.93;;
75005;SDS011;63553;51.814;4.600;2024-02-28T08:01:31;1.70;;;1.60;;
75005;SDS011;63553;51.814;4.600;2024-02-28T08:03:56;1.50;;;1.40;;
75005;SDS011;63553;51.814;4.600;2024-02-28T08:06:22;1.50;;;1.40;;
75005;SDS011;63553;51.814;4.600;2024-02-28T08:08:47;1.45;;;1.35;;
75005;SDS011;63553;51.814;4.600;2024-02-28T08:11:13;1.40;;;1.33;;
75005;SDS011;63553;51.814;4.600;2024-02-28T08:13:38;1.38;;;1.35;;
75005;SDS011;63553;51.814;4.600;2024-02-28T08:16:04;1.23;;;1.10;;
75005;SDS011;63553;51.814;4.600;2024-02-28T08:18:29;1.88;;;1.48;;
75005;SDS011;63553;51.814;4.600;2024-02-28T08:20:55;1.67;;;1.10;;
75005;SDS011;63553;51.814;4.600;2024-02-28T08:23:22;2.03;;;1.30;;
75005;SDS011;63553;51.814;4.600;2024-02-28T08:25:48;1.20;;;1.20;;
75005;SDS011;63553;51.814;4.600;2024-02-28T08:28:14;1.45;;;1.35;;
75005;SDS011;63553;51.814;4.600;2024-02-28T08:30:39;1.98;;;1.88;;
75005;SDS011;63553;51.814;4.600;2024-02-28T08:33:07;2.50;;;1.40;;
75005;SDS011;63553;51.814;4.600;2024-02-28T08:35:35;1.65;;;1.55;;
75005;SDS011;63553;51.814;4.600;2024-02-28T08:38:01;1.75;;;1.40;;
75005;SDS011;63553;51.814;4.600;2024-02-28T08:40:28;1.50;;;1.40;;
75005;SDS011;63553;51.814;4.600;2024-02-28T08:42:53;1.23;;;1.23;;
75005;SDS011;63553;51.814;4.600;2024-02-28T08:45:19;1.83;;;1.40;;
75005;SDS011;63553;51.814;4.600;2024-02-28T08:47:44;1.90;;;1.80;;
75005;SDS011;63553;51.814;4.600;2024-02-28T08:50:10;1.48;;;1.30;;
75005;SDS011;63553;51.814;4.600;2024-02-28T08:52:36;1.55;;;1.45;;
75005;SDS011;63553;51.814;4.600;2024-02-28T08:55:01;3.78;;;1.48;;
75005;SDS011;63553;51.814;4.600;2024-02-28T08:57:27;1.80;;;1.48;;
75005;SDS011;63553;51.814;4.600;2024-02-28T08:59:55;1.25;;;1.25;;
75005;SDS011;63553;51.814;4.600;2024-02-28T09:02:23;2.08;;;1.83;;
75005;SDS011;63553;51.814;4.600;2024-02-28T09:04:48;2.03;;;1.80;;
75005;SDS011;63553;51.814;4.600;2024-02-28T09:07:19;1.92;;;1.77;;
75005;SDS011;63553;51.814;4.600;2024-02-28T09:09:45;1.67;;;1.50;;
75005;SDS011;63553;51.814;4.600;2024-02-28T09:12:10;1.70;;;1.50;;
75005;SDS011;63553;51.814;4.600;2024-02-28T09:14:36;1.83;;;1.73;;
75005;SDS011;63553;51.814;4.600;2024-02-28T09:17:01;2.03;;;1.60;;
75005;SDS011;63553;51.814;4.600;2024-02-28T09:19:29;3.05;;;1.50;;
75005;SDS011;63553;51.814;4.600;2024-02-28T09:21:55;1.80;;;1.70;;
75005;SDS011;63553;51.814;4.600;2024-02-28T09:24:20;2.13;;;2.00;;
75005;SDS011;63553;51.814;4.600;2024-02-28T09:26:46;2.53;;;1.90;;
75005;SDS011;63553;51.814;4.600;2024-02-28T09:29:11;2.30;;;2.10;;
75005;SDS011;63553;51.814;4.600;2024-02-28T09:31:36;2.97;;;1.80;;
75005;SDS011;63553;51.814;4.600;2024-02-28T09:34:02;1.60;;;1.50;;
75005;SDS011;63553;51.814;4.600;2024-02-28T09:38:57;1.70;;;1.60;;
75005;SDS011;63553;51.814;4.600;2024-02-28T09:41:23;1.20;;;1.20;;
75005;SDS011;63553;51.814;4.600;2024-02-28T09:43:51;1.52;;;1.42;;
75005;SDS011;63553;51.814;4.600;2024-02-28T09:46:17;1.80;;;1.70;;
75005;SDS011;63553;51.814;4.600;2024-02-28T09:48:42;1.50;;;1.40;;
75005;SDS011;63553;51.814;4.600;2024-02-28T09:51:08;1.92;;;1.70;;
75005;SDS011;63553;51.814;4.600;2024-02-28T09:53:35;1.23;;;1.23;;
75005;SDS011;63553;51.814;4.600;2024-02-28T09:56:00;2.03;;;1.30;;
75005;SDS011;63553;51.814;4.600;2024-02-28T09:58:26;1.70;;;1.60;;
75005;SDS011;63553;51.814;4.600;2024-02-28T10:00:52;1.73;;;1.63;;
75005;SDS011;63553;51.814;4.600;2024-02-28T10:03:24;1.90;;;1.75;;
75005;SDS011;63553;51.814;4.600;2024-02-28T10:05:51;2.70;;;2.50;;
75005;SDS011;63553;51.814;4.600;2024-02-28T10:08:16;3.73;;;2.33;;
75005;SDS011;63553;51.814;4.600;2024-02-28T10:10:45;1.90;;;1.80;;
75005;SDS011;63553;51.814;4.600;2024-02-28T10:13:12;1.58;;;1.48;;
75005;SDS011;63553;51.814;4.600;2024-02-28T10:15:37;1.65;;;1.50;;
75005;SDS011;63553;51.814;4.600;2024-02-28T10:18:03;2.00;;;1.70;;
75005;SDS011;63553;51.814;4.600;2024-02-28T10:20:32;2.40;;;2.20;;
75005;SDS011;63553;51.814;4.600;2024-02-28T10:22:57;3.00;;;1.90;;
75005;SDS011;63553;51.814;4.600;2024-02-28T10:25:22;2.13;;;1.87;;
75005;SDS011;63553;51.814;4.600;2024-02-28T10:27:48;2.53;;;2.33;;
75005;SDS011;63553;51.814;4.600;2024-02-28T10:30:14;3.25;;;2.05;;
75005;SDS011;63553;51.814;4.600;2024-02-28T10:32:48;2.17;;;1.98;;
75005;SDS011;63553;51.814;4.600;2024-02-28T10:35:14;2.08;;;1.95;;
75005;SDS011;63553;51.814;4.600;2024-02-28T10:37:42;2.20;;;2.03;;
75005;SDS011;63553;51.814;4.600;2024-02-28T10:40:09;2.63;;;2.42;;
75005;SDS011;63553;51.814;4.600;2024-02-28T10:42:36;3.08;;;2.28;;
75005;SDS011;63553;51.814;4.600;2024-02-28T10:45:02;2.50;;;2.30;;
75005;SDS011;63553;51.814;4.600;2024-02-28T10:47:28;2.40;;;2.17;;
75005;SDS011;63553;51.814;4.600;2024-02-28T10:49:53;4.20;;;2.88;;
75005;SDS011;63553;51.814;4.600;2024-02-28T10:52:19;2.70;;;2.13;;
75005;SDS011;63553;51.814;4.600;2024-02-28T10:54:47;3.40;;;3.10;;
75005;SDS011;63553;51.814;4.600;2024-02-28T10:57:19;4.05;;;2.20;;
75005;SDS011;63553;51.814;4.600;2024-02-28T10:59:46;3.35;;;2.60;;
75005;SDS011;63553;51.814;4.600;2024-02-28T11:02:12;2.38;;;2.17;;
75005;SDS011;63553;51.814;4.600;2024-02-28T11:04:39;2.40;;;2.20;;
75005;SDS011;63553;51.814;4.600;2024-02-28T11:07:05;2.88;;;2.10;;
75005;SDS011;63553;51.814;4.600;2024-02-28T11:09:30;2.22;;;2.03;;
75005;SDS011;63553;51.814;4.600;2024-02-28T11:11:57;4.18;;;2.83;;
75005;SDS011;63553;51.814;4.600;2024-02-28T11:14:22;2.92;;;2.10;;
75005;SDS011;63553;51.814;4.600;2024-02-28T11:17:03;3.58;;;2.33;;
75005;SDS011;63553;51.814;4.600;2024-02-28T11:19:29;1.98;;;1.80;;
75005;SDS011;63553;51.814;4.600;2024-02-28T11:21:56;1.88;;;1.77;;
75005;SDS011;63553;51.814;4.600;2024-02-28T11:24:24;2.30;;;1.92;;
75005;SDS011;63553;51.814;4.600;2024-02-28T11:26:50;1.98;;;1.75;;
75005;SDS011;63553;51.814;4.600;2024-02-28T11:29:25;2.10;;;1.90;;
75005;SDS011;63553;51.814;4.600;2024-02-28T11:31:52;1.90;;;1.80;;
75005;SDS011;63553;51.814;4.600;2024-02-28T11:34:18;1.63;;;1.52;;
75005;SDS011;63553;51.814;4.600;2024-02-28T11:36:43;2.40;;;2.03;;
75005;SDS011;63553;51.814;4.600;2024-02-28T11:39:13;3.65;;;2.65;;
75005;SDS011;63553;51.814;4.600;2024-02-28T11:41:38;2.80;;;1.98;;
75005;SDS011;63553;51.814;4.600;2024-02-28T11:44:04;1.88;;;1.60;;
75005;SDS011;63553;51.814;4.600;2024-02-28T11:46:30;2.30;;;2.10;;
75005;SDS011;63553;51.814;4.600;2024-02-28T11:48:55;2.00;;;1.90;;
75005;SDS011;63553;51.814;4.600;2024-02-28T11:51:22;1.80;;;1.70;;
75005;SDS011;63553;51.814;4.600;2024-02-28T11:53:48;1.88;;;1.77;;
75005;SDS011;63553;51.814;4.600;2024-02-28T11:56:13;2.15;;;1.90;;
75005;SDS011;63553;51.814;4.600;2024-02-28T11:58:54;1.92;;;1.83;;
75005;SDS011;63553;51.814;4.600;2024-02-28T12:01:39;1.88;;;1.77;;
75005;SDS011;63553;51.814;4.600;2024-02-28T12:04:14;3.08;;;2.30;;
75005;SDS011;63553;51.814;4.600;2024-02-28T12:06:39;1.85;;;1.75;;
75005;SDS011;63553;51.814;4.600;2024-02-28T12:09:06;1.90;;;1.80;;
75005;SDS011;63553;51.814;4.600;2024-02-28T12:14:05;1.90;;;1.70;;
75005;SDS011;63553;51.814;4.600;2024-02-28T12:16:34;2.10;;;1.90;;
75005;SDS011;63553;51.814;4.600;2024-02-28T12:19:02;1.92;;;1.77;;
75005;SDS011;63553;51.814;4.600;2024-02-28T12:21:28;2.53;;;2.20;;
75005;SDS011;63553;51.814;4.600;2024-02-28T12:23:56;3.60;;;2.72;;
75005;SDS011;63553;51.814;4.600;2024-02-28T12:26:21;1.83;;;1.73;;
75005;SDS011;63553;51.814;4.600;2024-02-28T12:28:47;2.22;;;1.95;;
75005;SDS011;63553;51.814;4.600;2024-02-28T12:31:12;2.67;;;1.88;;
75005;SDS011;63553;51.814;4.600;2024-02-28T12:33:38;2.97;;;2.65;;
75005;SDS011;63553;51.814;4.600;2024-02-28T12:36:04;2.63;;;2.42;;
75005;SDS011;63553;51.814;4.600;2024-02-28T12:38:30;3.00;;;2.67;;
75005;SDS011;63553;51.814;4.600;2024-02-28T12:40:56;2.00;;;1.90;;
75005;SDS011;63553;51.814;4.600;2024-02-28T12:43:21;2.47;;;1.90;;
75005;SDS011;63553;51.814;4.600;2024-02-28T12:45:47;2.15;;;1.95;;
75005;SDS011;63553;51.814;4.600;2024-02-28T12:48:12;3.10;;;1.93;;
75005;SDS011;63553;51.814;4.600;2024-02-28T12:50:38;1.97;;;1.80;;
75005;SDS011;63553;51.814;4.600;2024-02-28T12:53:03;2.28;;;2.00;;
75005;SDS011;63553;51.814;4.600;2024-02-28T12:55:29;1.98;;;1.88;;
75005;SDS011;63553;51.814;4.600;2024-02-28T12:57:54;1.70;;;1.60;;
75005;SDS011;63553;51.814;4.600;2024-02-28T13:00:20;1.80;;;1.70;;
75005;SDS011;63553;51.814;4.600;2024-02-28T13:02:46;1.90;;;1.80;;
75005;SDS011;63553;51.814;4.600;2024-02-28T13:05:11;2.00;;;1.70;;
75005;SDS011;63553;51.814;4.600;2024-02-28T13:07:40;1.85;;;1.70;;
75005;SDS011;63553;51.814;4.600;2024-02-28T13:10:06;1.80;;;1.70;;
75005;SDS011;63553;51.814;4.600;2024-02-28T13:12:32;1.60;;;1.50;;
75005;SDS011;63553;51.814;4.600;2024-02-28T13:14:58;1.70;;;1.60;;
75005;SDS011;63553;51.814;4.600;2024-02-28T13:17:24;1.70;;;1.60;;
75005;SDS011;63553;51.814;4.600;2024-02-28T13:19:49;1.77;;;1.67;;
75005;SDS011;63553;51.814;4.600;2024-02-28T13:22:15;1.98;;;1.65;;
75005;SDS011;63553;51.814;4.600;2024-02-28T13:24:40;2.53;;;2.30;;
75005;SDS011;63553;51.814;4.600;2024-02-28T13:27:06;2.22;;;1.80;;
75005;SDS011;63553;51.814;4.600;2024-02-28T13:29:33;1.70;;;1.60;;
75005;SDS011;63553;51.814;4.600;2024-02-28T13:31:59;1.87;;;1.77;;
75005;SDS011;63553;51.814;4.600;2024-02-28T13:34:24;2.20;;;2.00;;
75005;SDS011;63553;51.814;4.600;2024-02-28T13:36:50;2.28;;;2.08;;
75005;SDS011;63553;51.814;4.600;2024-02-28T13:39:16;3.47;;;2.30;;
75005;SDS011;63553;51.814;4.600;2024-02-28T13:41:41;2.33;;;2.13;;
75005;SDS011;63553;51.814;4.600;2024-02-28T13:44:07;4.53;;;2.60;;
75005;SDS011;63553;51.814;4.600;2024-02-28T13:46:34;2.40;;;2.20;;
75005;SDS011;63553;51.814;4.600;2024-02-28T13:48:59;2.67;;;2.25;;
75005;SDS011;63553;51.814;4.600;2024-02-28T13:51:25;2.22;;;2.03;;
75005;SDS011;63553;51.814;4.600;2024-02-28T13:53:50;2.55;;;2.33;;
75005;SDS011;63553;51.814;4.600;2024-02-28T13:56:19;2.85;;;2.40;;
75005;SDS011;63553;51.814;4.600;2024-02-28T13:58:44;2.50;;;2.30;;
75005;SDS011;63553;51.814;4.600;2024-02-28T14:01:10;2.80;;;2.60;;
75005;SDS011;63553;51.814;4.600;2024-02-28T14:03:35;2.22;;;2.03;;
75005;SDS011;63553;51.814;4.600;2024-02-28T14:06:02;3.85;;;2.10;;
75005;SDS011;63553;51.814;4.600;2024-02-28T14:08:27;2.38;;;2.17;;
75005;SDS011;63553;51.814;4.600;2024-02-28T14:10:53;3.88;;;2.10;;
75005;SDS011;63553;51.814;4.600;2024-02-28T14:13:18;2.30;;;2.13;;
75005;SDS011;63553;51.814;4.600;2024-02-28T14:15:44;2.10;;;1.90;;
75005;SDS011;63553;51.814;4.600;2024-02-28T14:18:10;2.22;;;2.08;;
75005;SDS011;63553;51.814;4.600;2024-02-28T14:20:36;2.35;;;2.15;;
75005;SDS011;63553;51.814;4.600;2024-02-28T14:23:03;2.45;;;2.13;;
75005;SDS011;63553;51.814;4.600;2024-02-28T14:25:29;2.42;;;1.95;;
75005;SDS011;63553;51.814;4.600;2024-02-28T14:27:55;2.58;;;1.85;;
75005;SDS011;63553;51.814;4.600;2024-02-28T14:30:21;2.17;;;1.98;;
75005;SDS011;63553;51.814;4.600;2024-02-28T14:32:47;2.38;;;2.17;;
75005;SDS011;63553;51.814;4.600;2024-02-28T14:35:14;2.63;;;2.22;;
75005;SDS011;63553;51.814;4.600;2024-02-28T14:37:39;3.38;;;2.42;;
75005;SDS011;63553;51.814;4.600;2024-02-28T14:40:06;2.10;;;2.00;;
75005;SDS011;63553;51.814;4.600;2024-02-28T14:42:35;2.33;;;2.20;;
75005;SDS011;63553;51.814;4.600;2024-02-28T14:45:07;2.22;;;2.10;;